Time;durP1;ratioP1;P1;durP2;ratioP2;P2;SDS_P1;SDS_P2;PMS_P1;PMS_P2;Temp;Humidity;BMP_temperature;BMP_pressure;BME280_temperature;BME280_humidity;BME280_pressure;Samples;Min_cycle;Max_cycle;Signal;HPM_P1;HPM_P2
2022/12/27 00:00:51;;;;;;;;;;;;;;;19.34;63.97;99616.00;2084168;28;19970;-74
2022/12/27 00:01:53;;;;;;;;;;;;;;;19.34;63.89;99607.94;2083273;28;19936;-74
2022/12/27 00:02:55;;;;;;;;;;;;;;;19.35;63.89;99606.09;2082582;28;20389;-74
2022/12/27 00:03:56;;;;;;;;;;;;;;;19.34;63.85;99605.25;2081954;28;19967;-74
2022/12/27 00:04:57;;;;;;;;;;;;;;;19.33;63.88;99602.72;2084586;28;19924;-75
2022/12/27 00:05:58;;;;;;;;;;;;;;;19.34;63.73;99602.56;2084109;28;19921;-75
2022/12/27 00:06:59;;;;;;;;;;;;;;;19.33;63.83;99606.25;2084957;28;19940;-74
2022/12/27 00:08:01;;;;;;;;;;;;;;;19.32;63.61;99604.59;2082829;28;19925;-75
2022/12/27 00:09:02;;;;;;;;;;;;;;;19.31;63.96;99607.50;2082819;28;20435;-74
2022/12/27 00:10:04;;;;;;;;;;;;;;;19.31;63.64;99607.50;2083094;28;19983;-74
2022/12/27 00:11:05;;;;;;;;;;;;;;;19.33;63.67;99603.56;2083800;28;20408;-75
2022/12/27 00:12:07;;;;;;;;;;;;;;;19.31;63.98;99615.56;2082398;28;19927;-75
2022/12/27 00:13:07;;;;;;;;;;;;;;;19.30;63.78;99614.69;2083334;28;19921;-74
2022/12/27 00:14:10;;;;;;;;;;;;;;;19.32;63.91;99623.41;2082045;28;19974;-74
2022/12/27 00:15:11;;;;;;;;;;;;;;;19.29;63.74;99621.09;2072923;28;20002;-75
2022/12/27 00:16:13;;;;;;;;;;;;;;;19.28;63.73;99619.44;2082611;28;19925;-75
2022/12/27 00:17:13;;;;;;;;;;;;;;;19.28;63.92;99627.50;2082419;28;19928;-75
2022/12/27 00:18:16;;;;;;;;;;;;;;;19.27;63.88;99633.91;2084195;28;19932;-74
2022/12/27 00:19:17;;;;;;;;;;;;;;;19.29;63.94;99628.34;2081882;28;20720;-74
2022/12/27 00:20:18;;;;;;;;;;;;;;;19.30;63.83;99625.44;2082691;28;19938;-74
2022/12/27 00:21:19;;;;;;;;;;;;;;;19.28;63.66;99630.19;2081175;28;19960;-75
2022/12/27 00:22:21;;;;;;;;;;;;;;;19.26;63.76;99629.53;2082691;28;20386;-74
2022/12/27 00:23:21;;;;;;;;;;;;;;;19.28;64.05;99637.41;2075696;28;19989;-75
2022/12/27 00:24:23;;;;;;;;;;;;;;;19.28;63.64;99635.59;2080171;28;19932;-75
2022/12/27 00:25:23;;;;;;;;;;;;;;;19.23;63.76;99623.72;2082008;28;20787;-75
2022/12/27 00:26:27;;;;;;;;;;;;;;;19.24;63.81;99633.44;2082341;28;19924;-75
2022/12/27 00:27:27;;;;;;;;;;;;;;;19.22;63.69;99625.53;2082852;28;19924;-74
2022/12/27 00:28:29;;;;;;;;;;;;;;;19.23;63.97;99631.78;2080325;28;19920;-75
2022/12/27 00:29:31;;;;;;;;;;;;;;;19.21;63.65;99629.25;2080667;28;19925;-75
2022/12/27 00:30:31;;;;;;;;;;;;;;;19.22;63.85;99632.78;2082133;28;20068;-75
2022/12/27 00:31:33;;;;;;;;;;;;;;;19.20;63.89;99633.81;2082367;28;19928;-74
2022/12/27 00:32:34;;;;;;;;;;;;;;;19.19;64.09;99637.53;2080977;28;20023;-75
2022/12/27 00:33:38;;;;;;;;;;;;;;;19.17;64.05;99642.25;2082080;28;20477;-75
2022/12/27 00:34:39;;;;;;;;;;;;;;;19.20;63.58;99641.88;2082328;28;20324;-74
2022/12/27 00:35:40;;;;;;;;;;;;;;;19.20;63.87;99647.25;2083481;28;19924;-74
2022/12/27 00:36:41;;;;;;;;;;;;;;;19.18;63.90;99646.59;2082421;28;19920;-75
2022/12/27 00:37:42;;;;;;;;;;;;;;;19.18;64.01;99645.75;2082120;28;19935;-75
2022/12/27 00:38:43;;;;;;;;;;;;;;;19.15;63.80;99640.75;2082996;28;19929;-74
2022/12/27 00:39:44;;;;;;;;;;;;;;;19.15;63.81;99644.28;2081950;28;19929;-75
2022/12/27 00:40:45;;;;;;;;;;;;;;;19.15;64.00;99638.06;2075236;28;20294;-75
2022/12/27 00:41:46;;;;;;;;;;;;;;;19.13;63.78;99638.22;2083070;28;20007;-74
2022/12/27 00:42:47;;;;;;;;;;;;;;;19.13;64.12;99634.72;2083170;28;20461;-75
2022/12/27 00:43:48;;;;;;;;;;;;;;;19.12;63.87;99643.81;2082853;28;19935;-74
2022/12/27 00:44:49;;;;;;;;;;;;;;;19.10;64.24;99646.66;2082071;28;19931;-74
2022/12/27 00:45:51;;;;;;;;;;;;;;;19.13;63.87;99642.78;2084017;28;19943;-74
2022/12/27 00:46:52;;;;;;;;;;;;;;;19.12;63.95;99643.81;2080437;28;20365;-74
2022/12/27 00:47:53;;;;;;;;;;;;;;;19.09;64.08;99641.47;2083606;28;19928;-75
2022/12/27 00:48:57;;;;;;;;;;;;;;;19.06;64.01;99639.16;2081935;28;19925;-75
2022/12/27 00:49:57;;;;;;;;;;;;;;;19.06;64.20;99644.53;2081127;28;20282;-74
2022/12/27 00:50:59;;;;;;;;;;;;;;;19.06;64.07;99631.09;2081775;28;19931;-75
2022/12/27 00:52:00;;;;;;;;;;;;;;;19.09;63.99;99638.78;2083279;28;19924;-74
2022/12/27 00:53:01;;;;;;;;;;;;;;;19.08;64.14;99637.09;2082279;28;19924;-74
2022/12/27 00:54:02;;;;;;;;;;;;;;;19.07;64.19;99641.66;2081329;28;19963;-75
2022/12/27 00:55:04;;;;;;;;;;;;;;;19.05;63.81;99645.53;2082829;28;20496;-74
2022/12/27 00:56:05;;;;;;;;;;;;;;;19.03;64.28;99639.50;2080841;28;19997;-74
2022/12/27 00:57:06;;;;;;;;;;;;;;;19.02;64.02;99637.84;2082031;28;20557;-75
2022/12/27 00:58:07;;;;;;;;;;;;;;;19.02;64.12;99635.16;2083295;28;19920;-74
2022/12/27 00:59:11;;;;;;;;;;;;;;;19.05;64.17;99637.47;2081785;28;19928;-75
2022/12/27 01:00:12;;;;;;;;;;;;;;;19.00;64.08;99639.88;2081692;28;19929;-75
2022/12/27 01:01:14;;;;;;;;;;;;;;;18.99;64.36;99636.34;2082686;28;19974;-75
2022/12/27 01:02:15;;;;;;;;;;;;;;;19.00;64.38;99623.72;2083742;28;19932;-74
2022/12/27 01:03:17;;;;;;;;;;;;;;;18.98;64.38;99619.38;2082311;28;19975;-74
2022/12/27 01:04:19;;;;;;;;;;;;;;;18.99;64.17;99620.22;2082589;28;19921;-75
2022/12/27 01:05:21;;;;;;;;;;;;;;;18.98;64.17;99610.50;2083568;28;19931;-75
2022/12/27 01:06:22;;;;;;;;;;;;;;;18.98;63.89;99611.31;2081681;28;19925;-74
2022/12/27 01:07:23;;;;;;;;;;;;;;;19.00;64.05;99615.66;2083440;28;19925;-75
2022/12/27 01:08:24;;;;;;;;;;;;;;;18.98;63.97;99614.00;2081081;28;19967;-74
2022/12/27 01:09:25;;;;;;;;;;;;;;;18.98;64.15;99611.31;2082950;28;19935;-75
2022/12/27 01:10:26;;;;;;;;;;;;;;;18.97;64.23;99612.34;2082157;28;19924;-74
2022/12/27 01:11:28;;;;;;;;;;;;;;;18.98;64.26;99618.56;2082458;28;19982;-74
2022/12/27 01:12:28;;;;;;;;;;;;;;;18.95;64.18;99606.31;2081155;28;19925;-74
2022/12/27 01:13:30;;;;;;;;;;;;;;;18.95;64.09;99613.53;2081647;28;19932;-75
2022/12/27 01:14:32;;;;;;;;;;;;;;;18.94;64.38;99604.66;2081537;28;19920;-75
2022/12/27 01:15:32;;;;;;;;;;;;;;;18.92;63.94;99601.31;2082797;28;19971;-74
2022/12/27 01:16:34;;;;;;;;;;;;;;;18.93;64.35;99604.81;2081697;28;21835;-74
2022/12/27 01:17:34;;;;;;;;;;;;;;;18.93;64.08;99602.97;2083023;28;20570;-75
2022/12/27 01:18:36;;;;;;;;;;;;;;;18.93;64.31;99604.81;2081347;28;19928;-74
2022/12/27 01:19:38;;;;;;;;;;;;;;;18.92;64.35;99605.84;2082827;28;19973;-74
2022/12/27 01:20:40;;;;;;;;;;;;;;;18.92;63.96;99605.84;2082263;28;20528;-74
2022/12/27 01:21:40;;;;;;;;;;;;;;;18.91;64.31;99607.69;2082885;28;20300;-75
2022/12/27 01:22:42;;;;;;;;;;;;;;;18.92;64.24;99616.59;2081220;28;19924;-75
2022/12/27 01:23:42;;;;;;;;;;;;;;;18.90;64.08;99610.56;2087175;22;20372;-76
2022/12/27 01:24:44;;;;;;;;;;;;;;;18.91;64.17;99610.38;2070809;28;19925;-75
2022/12/27 01:25:44;;;;;;;;;;;;;;;18.90;64.12;99608.72;2072686;28;19928;-76
2022/12/27 01:26:46;;;;;;;;;;;;;;;18.88;64.35;99610.72;2073117;28;19933;-75
2022/12/27 01:27:46;;;;;;;;;;;;;;;18.88;63.99;99604.53;2064721;28;20462;-73
2022/12/27 01:28:48;;;;;;;;;;;;;;;18.89;64.27;99596.28;2072176;28;20397;-75
2022/12/27 01:29:49;;;;;;;;;;;;;;;18.89;64.41;99600.84;2072111;28;20325;-75
2022/12/27 01:30:50;;;;;;;;;;;;;;;18.88;64.05;99599.97;2072749;28;19968;-75
2022/12/27 01:31:52;;;;;;;;;;;;;;;18.88;64.11;99594.59;2072893;28;19922;-72
2022/12/27 01:32:52;;;;;;;;;;;;;;;18.87;64.03;99600.19;2073008;28;19946;-74
2022/12/27 01:33:55;;;;;;;;;;;;;;;18.87;64.12;99606.38;2070019;28;19926;-75
2022/12/27 01:34:57;;;;;;;;;;;;;;;18.88;64.08;99612.59;2073259;28;19922;-75
2022/12/27 01:35:58;;;;;;;;;;;;;;;18.86;64.11;99602.03;2073069;28;20631;-72
2022/12/27 01:36:59;;;;;;;;;;;;;;;18.87;64.27;99608.25;2072654;28;20642;-73
2022/12/27 01:38:00;;;;;;;;;;;;;;;18.86;63.86;99604.72;2072156;28;19920;-74
2022/12/27 01:39:01;;;;;;;;;;;;;;;18.85;64.39;99594.13;2072621;28;19926;-72
2022/12/27 01:40:02;;;;;;;;;;;;;;;18.85;64.24;99603.03;2072387;28;19975;-71
2022/12/27 01:42:50;;;;;;;;;;;;;;;18.85;64.09;99608.41;2075996;28;22152;-72
2022/12/27 01:43:42;;;;;;;;;;;;;;;18.83;64.32;99607.75;2071336;28;19948;-74
2022/12/27 01:44:53;;;;;;;;;;;;;;;18.84;64.21;99604.06;2072050;28;19925;-72
2022/12/27 01:45:54;;;;;;;;;;;;;;;18.82;64.31;99607.94;2069636;28;20299;-73
2022/12/27 01:46:55;;;;;;;;;;;;;;;18.80;64.41;99597.38;2071306;28;19952;-74
2022/12/27 01:47:59;;;;;;;;;;;;;;;18.81;64.14;99606.28;2071342;28;19925;-74
2022/12/27 01:49:00;;;;;;;;;;;;;;;18.80;64.15;99605.44;2072583;28;19928;-73
2022/12/27 01:50:11;;;;;;;;;;;;;;;18.80;64.43;99593.84;2073546;28;19929;-73
2022/12/27 01:51:13;;;;;;;;;;;;;;;18.80;64.41;99602.75;2071592;28;20444;-72
2022/12/27 01:52:14;;;;;;;;;;;;;;;18.79;64.13;99601.06;2073226;28;19926;-75
2022/12/27 01:53:17;;;;;;;;;;;;;;;18.78;64.37;99602.09;2070820;28;19982;-75
2022/12/27 01:54:18;;;;;;;;;;;;;;;18.76;64.33;99601.44;2069871;28;19926;-74
2022/12/27 01:55:23;;;;;;;;;;;;;;;18.75;64.22;99599.78;2071297;28;19991;-74
2022/12/27 01:56:25;;;;;;;;;;;;;;;18.74;64.36;99595.41;2070636;28;19925;-72
2022/12/27 01:57:27;;;;;;;;;;;;;;;18.74;64.48;99595.41;2072367;28;19925;-75
2022/12/27 01:58:28;;;;;;;;;;;;;;;18.74;64.41;99596.22;2070539;28;20448;-75
2022/12/27 01:59:30;;;;;;;;;;;;;;;18.73;64.26;99597.22;2073082;28;20414;-75
2022/12/27 02:00:30;;;;;;;;;;;;;;;18.72;64.39;99600.94;2072733;28;19944;-75
2022/12/27 02:01:34;;;;;;;;;;;;;;;18.72;64.47;99597.41;2073542;28;20015;-74
2022/12/27 02:02:34;;;;;;;;;;;;;;;18.72;64.18;99600.94;2072239;28;19966;-72
2022/12/27 02:03:38;;;;;;;;;;;;;;;18.71;64.04;99603.81;2072139;28;19925;-73
2022/12/27 02:04:39;;;;;;;;;;;;;;;18.71;64.54;99601.94;2070682;28;20401;-72
2022/12/27 02:05:42;;;;;;;;;;;;;;;18.71;64.22;99603.81;2065356;28;19994;-72
2022/12/27 02:06:42;;;;;;;;;;;;;;;18.69;64.30;99595.06;2071814;28;19925;-72
2022/12/27 02:07:50;;;;;;;;;;;;;;;18.71;64.36;99598.44;2074934;28;20556;-74
2022/12/27 02:08:54;;;;;;;;;;;;;;;18.70;64.21;99589.53;2072969;28;19926;-74
2022/12/27 02:09:57;;;;;;;;;;;;;;;18.69;64.43;99589.69;2072379;28;19925;-75
2022/12/27 02:10:59;;;;;;;;;;;;;;;18.66;64.34;99590.06;2073019;28;20417;-75
2022/12/27 02:12:02;;;;;;;;;;;;;;;18.67;64.29;99586.38;2069485;28;19925;-74
2022/12/27 02:13:04;;;;;;;;;;;;;;;18.67;64.32;99583.69;2072150;28;19955;-73
2022/12/27 02:14:06;;;;;;;;;;;;;;;18.66;64.22;99585.53;2071273;28;19932;-72
2022/12/27 02:15:07;;;;;;;;;;;;;;;18.64;64.26;99584.06;2071192;28;20345;-72
2022/12/27 02:16:12;;;;;;;;;;;;;;;18.64;64.56;99581.38;2069967;28;20153;-72
2022/12/27 02:17:15;;;;;;;;;;;;;;;18.63;64.29;99580.50;2070105;28;19932;-73
2022/12/27 02:18:17;;;;;;;;;;;;;;;18.63;64.27;99585.06;2071366;28;20504;-75
2022/12/27 02:19:23;;;;;;;;;;;;;;;18.64;64.33;99582.19;2071448;28;20644;-72
2022/12/27 02:20:25;;;;;;;;;;;;;;;18.64;64.32;99584.06;2072293;28;19971;-73
2022/12/27 02:21:41;;;;;;;;;;;;;;;18.65;64.48;99578.50;2071141;28;20422;-75
2022/12/27 02:24:39;;;;;;;;;;;;;;;18.62;64.35;99576.16;2070179;28;20019;-74
2022/12/27 02:25:52;;;;;;;;;;;;;;;18.61;64.43;99576.34;2071696;28;20311;-72
2022/12/27 02:26:57;;;;;;;;;;;;;;;18.59;64.26;99570.31;2069552;28;19968;-72
2022/12/27 02:28:06;;;;;;;;;;;;;;;18.57;64.25;99573.19;2074648;28;20384;-76
2022/12/27 02:29:28;;;;;;;;;;;;;;;18.58;64.44;99576.69;2072657;28;19925;-73
2022/12/27 02:30:32;;;;;;;;;;;;;;;18.58;64.66;99571.31;2064537;28;20411;-73
2022/12/27 02:31:38;;;;;;;;;;;;;;;18.58;64.59;99557.88;2069967;28;20384;-72
2022/12/27 02:32:43;;;;;;;;;;;;;;;18.58;64.25;99560.56;2070461;28;20351;-72
2022/12/27 02:33:46;;;;;;;;;;;;;;;18.57;64.39;99562.44;2070822;28;20300;-72
2022/12/27 02:34:52;;;;;;;;;;;;;;;18.57;64.29;99556.22;2068286;28;20398;-72
2022/12/27 02:35:55;;;;;;;;;;;;;;;18.54;64.47;99552.88;2071237;28;19925;-75
2022/12/27 02:37:00;;;;;;;;;;;;;;;18.53;64.64;99548.53;2070339;28;20011;-73
2022/12/27 02:38:03;;;;;;;;;;;;;;;18.52;64.81;99549.53;2069279;28;20469;-73
2022/12/27 02:39:05;;;;;;;;;;;;;;;18.53;64.54;99547.72;2072311;28;19929;-74
2022/12/27 02:53:45;;;;;;;;;;;;;;;18.47;64.73;99549.25;2067749;28;20383;-72
2022/12/27 02:54:55;;;;;;;;;;;;;;;18.47;64.64;99549.25;2071429;28;19949;-72
2022/12/27 02:57:29;;;;;;;;;;;;;;;18.46;64.56;99547.56;2073223;28;19924;-73
2022/12/27 02:58:34;;;;;;;;;;;;;;;18.44;64.56;99544.25;2070897;28;19929;-74
2022/12/27 03:03:19;;;;;;;;;;;;;;;18.43;64.42;99545.25;2072558;28;19931;-73
2022/12/27 03:04:15;;;;;;;;;;;;;;;18.40;64.69;99553.66;2057714;28;21763;-73
2022/12/27 03:05:22;;;;;;;;;;;;;;;18.41;64.81;99560.69;2073982;28;19931;-73
2022/12/27 03:06:40;;;;;;;;;;;;;;;18.41;64.85;99557.19;2072571;28;19936;-74
2022/12/27 03:07:46;;;;;;;;;;;;;;;18.40;64.81;99551.00;2072906;28;19959;-71
2022/12/27 03:08:53;;;;;;;;;;;;;;;18.41;64.75;99554.50;2068998;28;19974;-71
2022/12/27 03:15:57;;;;;;;;;;;;;;;18.38;64.82;99555.69;2060074;28;19933;-71
2022/12/27 03:16:59;;;;;;;;;;;;;;;18.37;64.79;99559.41;2059776;28;19925;-71
2022/12/27 03:18:07;;;;;;;;;;;;;;;18.37;64.71;99554.03;2069316;28;19925;-71
2022/12/27 03:19:11;;;;;;;;;;;;;;;18.36;64.74;99557.75;2069451;28;19928;-70
2022/12/27 03:25:34;;;;;;;;;;;;;;;18.34;64.43;99549.03;2071364;28;19921;-71
2022/12/27 03:26:36;;;;;;;;;;;;;;;18.32;64.53;99551.06;2070320;28;19925;-72
2022/12/27 03:27:39;;;;;;;;;;;;;;;18.30;64.65;99556.63;2070346;28;20395;-72
2022/12/27 03:35:23;;;;;;;;;;;;;;;18.30;64.85;99555.75;2069565;28;19925;-71
2022/12/27 03:38:04;;;;;;;;;;;;;;;18.28;64.92;99555.94;2068991;28;19925;-73
2022/12/27 03:39:06;;;;;;;;;;;;;;;18.29;64.88;99556.78;2069323;28;19925;-71
2022/12/27 03:40:11;;;;;;;;;;;;;;;18.26;64.91;99557.97;2068987;28;19928;-71
2022/12/27 03:43:55;;;;;;;;;;;;;;;18.27;64.68;99556.13;2068483;28;20012;-71
2022/12/27 03:44:57;;;;;;;;;;;;;;;18.26;64.89;99559.81;2068113;28;19925;-71
2022/12/27 03:47:27;;;;;;;;;;;;;;;18.25;65.06;99553.63;2071977;28;19920;-71
2022/12/27 03:48:32;;;;;;;;;;;;;;;18.24;64.84;99553.78;2070670;28;20240;-71
2022/12/27 03:49:37;;;;;;;;;;;;;;;18.27;64.95;99556.13;2068182;28;19925;-70
2022/12/27 03:50:43;;;;;;;;;;;;;;;18.23;64.79;99554.81;2070287;28;19940;-71
2022/12/27 03:51:47;;;;;;;;;;;;;;;18.24;64.91;99554.63;2069119;28;20036;-72
2022/12/27 03:52:51;;;;;;;;;;;;;;;18.24;64.91;99551.09;2071219;28;19936;-71
2022/12/27 03:53:53;;;;;;;;;;;;;;;18.24;64.87;99559.16;2068966;28;20587;-71
2022/12/27 03:54:58;;;;;;;;;;;;;;;18.22;64.97;99556.66;2068988;28;19932;-70
2022/12/27 03:55:59;;;;;;;;;;;;;;;18.21;64.90;99556.84;2070244;28;20379;-71
2022/12/27 03:57:02;;;;;;;;;;;;;;;18.21;64.82;99559.53;2070668;28;19983;-71
2022/12/27 03:58:03;;;;;;;;;;;;;;;18.22;65.00;99561.19;2069944;28;19929;-71
2022/12/27 03:59:05;;;;;;;;;;;;;;;18.21;64.87;99557.66;2067282;28;20004;-71
2022/12/27 04:00:06;;;;;;;;;;;;;;;18.21;64.67;99562.22;2070451;28;20076;-70
2022/12/27 04:01:07;;;;;;;;;;;;;;;18.20;65.05;99558.69;2068965;28;19931;-70
2022/12/27 04:02:08;;;;;;;;;;;;;;;18.20;64.97;99555.19;2069656;28;19932;-71
2022/12/27 04:03:10;;;;;;;;;;;;;;;18.18;65.03;99555.34;2069689;28;19926;-71
2022/12/27 04:04:10;;;;;;;;;;;;;;;18.18;65.03;99546.47;2069015;28;20035;-71
2022/12/27 04:05:13;;;;;;;;;;;;;;;18.17;64.75;99550.16;2068585;28;20284;-72
2022/12/27 04:06:14;;;;;;;;;;;;;;;18.18;65.15;99549.97;2068772;28;19925;-71
2022/12/27 04:07:16;;;;;;;;;;;;;;;18.18;64.86;99552.66;2071068;28;19935;-71
2022/12/27 04:34:50;;;;;;;;;;;;;;;18.08;64.90;99533.28;2070623;28;19953;-71
2022/12/27 04:35:52;;;;;;;;;;;;;;;18.08;64.87;99539.47;2069341;28;19932;-71
2022/12/27 04:36:53;;;;;;;;;;;;;;;18.12;64.86;99534.59;2071582;28;19929;-71
2022/12/27 04:37:54;;;;;;;;;;;;;;;18.16;64.55;99541.25;2070466;28;19980;-71
2022/12/27 04:38:55;;;;;;;;;;;;;;;18.21;64.50;99538.88;2070399;28;19928;-71
2022/12/27 04:55:51;;;;;;;;;;;;;;;18.82;63.84;99535.38;2068992;28;20375;-70
2022/12/27 04:56:52;;;;;;;;;;;;;;;18.84;63.33;99534.19;2069924;28;20360;-71
2022/12/27 04:57:54;;;;;;;;;;;;;;;18.89;63.48;99533.63;2071478;28;19927;-71
2022/12/27 05:02:53;;;;;;;;;;;;;;;19.03;63.29;99531.97;2070534;28;20000;-71
2022/12/27 05:03:53;;;;;;;;;;;;;;;19.03;63.43;99532.81;2071194;28;19926;-71
2022/12/27 05:04:55;;;;;;;;;;;;;;;19.02;63.43;99536.50;2069950;28;19931;-72
2022/12/27 05:05:56;;;;;;;;;;;;;;;19.03;63.41;99543.56;2070382;28;19925;-70
2022/12/27 05:13:58;;;;;;;;;;;;;;;19.05;63.31;99538.81;2071043;28;20903;-71
2022/12/27 05:14:54;;;;;;;;;;;;;;;19.17;63.21;99542.75;2069232;28;19925;-71
2022/12/27 05:15:55;;;;;;;;;;;;;;;19.20;63.11;99538.84;2071574;28;19932;-71
2022/12/27 05:16:56;;;;;;;;;;;;;;;19.22;63.43;99539.47;2072463;28;19920;-70
2022/12/27 05:17:57;;;;;;;;;;;;;;;19.24;63.00;99542.00;2070275;28;19926;-71
2022/12/27 05:18:58;;;;;;;;;;;;;;;19.25;63.22;99544.50;2070699;28;19929;-71
2022/12/27 05:19:59;;;;;;;;;;;;;;;19.26;63.27;99542.66;2071523;28;20288;-71
2022/12/27 05:21:02;;;;;;;;;;;;;;;19.29;62.93;99547.66;2072627;28;19922;-70
2022/12/27 05:26:17;;;;;;;;;;;;;;;19.35;63.17;99541.53;2042911;28;19922;-71
2022/12/27 05:27:18;;;;;;;;;;;;;;;19.37;63.03;99550.25;2052999;28;19921;-72
2022/12/27 05:28:19;;;;;;;;;;;;;;;19.41;63.15;99540.78;2070221;28;19975;-72
2022/12/27 05:29:20;;;;;;;;;;;;;;;19.42;63.24;99540.59;2069006;28;19922;-71
2022/12/27 05:30:21;;;;;;;;;;;;;;;19.45;62.84;99543.94;2069773;28;19947;-71
2022/12/27 05:31:22;;;;;;;;;;;;;;;19.42;63.08;99539.78;2071052;28;20115;-71
2022/12/27 05:32:24;;;;;;;;;;;;;;;19.45;62.92;99544.78;2073794;28;19925;-70
2022/12/27 05:33:24;;;;;;;;;;;;;;;19.48;62.90;99544.41;2071383;28;19977;-71
2022/12/27 05:34:26;;;;;;;;;;;;;;;19.48;63.19;99540.88;2072094;28;19964;-71
2022/12/27 05:35:27;;;;;;;;;;;;;;;19.46;63.28;99543.75;2073331;28;20394;-71
2022/12/27 05:36:28;;;;;;;;;;;;;;;19.46;63.19;99537.53;2069078;28;19935;-70
2022/12/27 05:37:30;;;;;;;;;;;;;;;19.48;63.28;99535.50;2071551;28;19955;-71
2022/12/27 05:38:32;;;;;;;;;;;;;;;19.50;63.06;99538.81;2071984;28;20335;-75
2022/12/27 05:39:32;;;;;;;;;;;;;;;19.51;62.99;99540.50;2071936;28;19921;-72
2022/12/27 05:40:34;;;;;;;;;;;;;;;19.53;63.11;99544.66;2071291;28;20008;-72
2022/12/27 05:41:34;;;;;;;;;;;;;;;19.52;62.93;99542.97;2070872;28;19936;-74
2022/12/27 05:42:36;;;;;;;;;;;;;;;19.57;62.64;99539.75;2072772;28;20379;-72
2022/12/27 05:43:36;;;;;;;;;;;;;;;19.56;63.07;99540.78;2071999;28;19921;-72
2022/12/27 05:44:38;;;;;;;;;;;;;;;19.56;62.83;99546.97;2072018;28;20935;-72
2022/12/27 05:45:38;;;;;;;;;;;;;;;19.58;62.79;99541.41;2073870;28;19935;-74
2022/12/27 05:46:40;;;;;;;;;;;;;;;19.59;62.68;99541.22;2070546;28;19924;-73
2022/12/27 05:47:40;;;;;;;;;;;;;;;19.59;62.79;99541.22;2072330;28;19921;-74
2022/12/27 05:48:42;;;;;;;;;;;;;;;19.60;62.78;99544.75;2072547;28;19926;-72
2022/12/27 05:49:43;;;;;;;;;;;;;;;19.60;62.73;99542.06;2072496;28;19997;-74
2022/12/27 05:50:44;;;;;;;;;;;;;;;19.60;63.13;99544.75;2072425;28;20465;-72
2022/12/27 05:51:45;;;;;;;;;;;;;;;19.61;62.95;99544.56;2072381;28;19925;-73
2022/12/27 05:52:48;;;;;;;;;;;;;;;19.63;62.57;99545.19;2072999;28;20521;-72
2022/12/27 05:53:48;;;;;;;;;;;;;;;19.62;62.68;99548.91;2067712;28;20169;-73
2022/12/27 05:54:50;;;;;;;;;;;;;;;19.64;62.71;99546.06;2069204;28;19925;-73
2022/12/27 05:55:54;;;;;;;;;;;;;;;19.64;62.67;99540.66;2073588;28;19948;-74
2022/12/27 05:56:55;;;;;;;;;;;;;;;19.64;62.56;99552.25;2072616;28;19925;-74
2022/12/27 05:57:56;;;;;;;;;;;;;;;19.65;62.70;99550.41;2073202;28;19941;-73
2022/12/27 05:58:57;;;;;;;;;;;;;;;19.68;62.98;99543.84;2073195;28;19932;-73
2022/12/27 05:59:58;;;;;;;;;;;;;;;19.68;62.62;99550.06;2070373;28;20287;-73
2022/12/27 06:00:59;;;;;;;;;;;;;;;19.69;62.80;99549.03;2073655;28;19924;-72
2022/12/27 06:02:00;;;;;;;;;;;;;;;19.70;62.81;99550.72;2069594;28;20433;-74
2022/12/27 06:03:02;;;;;;;;;;;;;;;19.71;62.65;99546.97;2070664;28;19921;-72
2022/12/27 06:04:02;;;;;;;;;;;;;;;19.68;62.67;99551.91;2073008;28;19922;-73
2022/12/27 06:05:04;;;;;;;;;;;;;;;19.68;62.70;99551.91;2073501;28;19935;-73
2022/12/27 06:06:05;;;;;;;;;;;;;;;19.69;62.72;99553.56;2071488;28;19933;-73
2022/12/27 06:07:07;;;;;;;;;;;;;;;19.69;62.75;99548.19;2071963;28;20430;-72
2022/12/27 06:08:09;;;;;;;;;;;;;;;19.70;62.59;99550.72;2071496;28;19970;-73
2022/12/27 06:09:10;;;;;;;;;;;;;;;19.72;62.77;99556.72;2069625;28;19932;-73
2022/12/27 06:10:11;;;;;;;;;;;;;;;19.69;62.96;99551.72;2072141;28;21186;-73
2022/12/27 06:11:14;;;;;;;;;;;;;;;19.69;63.03;99559.78;2074373;28;19948;-72
2022/12/27 06:12:14;;;;;;;;;;;;;;;19.68;62.53;99560.81;2074243;28;19925;-72
2022/12/27 06:13:16;;;;;;;;;;;;;;;19.70;62.86;99561.47;2070989;28;19925;-72
2022/12/27 06:14:16;;;;;;;;;;;;;;;19.69;62.58;99551.72;2072213;28;19955;-72
2022/12/27 06:15:18;;;;;;;;;;;;;;;19.71;62.68;99562.31;2072495;28;20544;-72
2022/12/27 06:16:19;;;;;;;;;;;;;;;19.71;62.78;99552.38;2072742;28;19990;-72
2022/12/27 06:17:20;;;;;;;;;;;;;;;19.71;62.70;99551.53;2072993;28;19928;-73
2022/12/27 06:18:21;;;;;;;;;;;;;;;19.71;62.71;99555.06;2074011;28;20072;-72
2022/12/27 06:19:22;;;;;;;;;;;;;;;19.72;62.80;99553.19;2071676;28;20023;-73
2022/12/27 06:20:23;;;;;;;;;;;;;;;19.72;62.72;99558.56;2073008;28;19978;-74
2022/12/27 06:21:24;;;;;;;;;;;;;;;19.70;62.77;99550.72;2074043;28;19924;-71
2022/12/27 06:22:25;;;;;;;;;;;;;;;19.70;63.00;99552.56;2072523;28;19932;-72
2022/12/27 06:23:28;;;;;;;;;;;;;;;19.68;62.99;99554.59;2071996;28;19929;-74
2022/12/27 06:24:28;;;;;;;;;;;;;;;19.68;63.06;99563.50;2071149;28;19925;-73
2022/12/27 06:25:30;;;;;;;;;;;;;;;19.69;62.71;99564.34;2071986;28;20438;-72
2022/12/27 06:26:30;;;;;;;;;;;;;;;19.68;62.62;99562.69;2070655;28;19925;-73
2022/12/27 06:27:32;;;;;;;;;;;;;;;19.69;62.94;99564.34;2069871;28;19955;-72
2022/12/27 06:28:32;;;;;;;;;;;;;;;19.68;62.97;99562.69;2072749;28;19970;-74
2022/12/27 06:29:34;;;;;;;;;;;;;;;19.68;62.70;99568.91;2072315;28;19994;-74
2022/12/27 06:30:35;;;;;;;;;;;;;;;19.68;62.62;99562.69;2075433;28;20341;-70
2022/12/27 06:31:36;;;;;;;;;;;;;;;19.67;62.79;99569.94;2073986;28;19926;-72
2022/12/27 06:32:37;;;;;;;;;;;;;;;19.65;62.89;99566.56;2076196;28;20498;-74
2022/12/27 06:33:38;;;;;;;;;;;;;;;19.64;62.99;99570.28;2071156;28;20050;-72
2022/12/27 06:34:39;;;;;;;;;;;;;;;19.64;63.08;99573.78;2071282;28;19925;-74
2022/12/27 06:35:40;;;;;;;;;;;;;;;19.65;62.99;99574.63;2072304;28;19925;-72
2022/12/27 06:36:41;;;;;;;;;;;;;;;19.66;62.86;99573.63;2074571;28;20314;-76
2022/12/27 06:37:42;;;;;;;;;;;;;;;19.64;63.00;99573.78;2074744;28;19925;-72
2022/12/27 06:38:44;;;;;;;;;;;;;;;19.62;63.00;99577.69;2073357;28;19979;-75
2022/12/27 06:39:46;;;;;;;;;;;;;;;19.62;62.86;99581.22;2073085;28;19925;-74
2022/12/27 06:40:46;;;;;;;;;;;;;;;19.62;62.91;99583.06;2074399;28;19924;-73
2022/12/27 06:41:49;;;;;;;;;;;;;;;19.61;62.91;99586.78;2073137;28;19960;-75
2022/12/27 06:42:49;;;;;;;;;;;;;;;19.61;62.96;99590.31;2075147;28;19929;-73
2022/12/27 06:43:54;;;;;;;;;;;;;;;19.61;62.92;99587.63;2071952;28;19921;-74
2022/12/27 06:44:54;;;;;;;;;;;;;;;19.61;63.11;99586.78;2072619;28;19984;-73
2022/12/27 06:45:56;;;;;;;;;;;;;;;19.62;62.84;99588.47;2073145;28;20562;-74
2022/12/27 06:46:56;;;;;;;;;;;;;;;19.62;62.89;99585.75;2072814;28;20108;-75
2022/12/27 06:47:58;;;;;;;;;;;;;;;19.59;62.77;99586.97;2073705;28;19925;-75
2022/12/27 06:48:58;;;;;;;;;;;;;;;19.59;63.05;99581.59;2073018;28;20032;-74
2022/12/27 06:50:00;;;;;;;;;;;;;;;19.57;63.15;99585.50;2073208;28;19937;-73
2022/12/27 06:51:02;;;;;;;;;;;;;;;19.58;62.91;99584.44;2075441;28;19971;-73
2022/12/27 06:52:04;;;;;;;;;;;;;;;19.59;63.16;99591.53;2072850;28;20028;-74
2022/12/27 06:53:05;;;;;;;;;;;;;;;19.57;62.90;99594.38;2074403;28;19929;-74
2022/12/27 06:54:07;;;;;;;;;;;;;;;19.57;63.16;99593.56;2072828;28;20032;-72
2022/12/27 06:55:08;;;;;;;;;;;;;;;19.57;62.96;99593.56;2074925;28;20295;-73
2022/12/27 06:56:10;;;;;;;;;;;;;;;19.57;62.90;99597.09;2072170;28;19925;-75
2022/12/27 06:57:11;;;;;;;;;;;;;;;19.57;63.06;99598.94;2076106;28;20363;-74
2022/12/27 06:58:12;;;;;;;;;;;;;;;19.55;63.13;99596.44;2073954;28;19925;-73
2022/12/27 06:59:13;;;;;;;;;;;;;;;19.55;63.32;99601.81;2071597;28;19928;-76
2022/12/27 07:00:15;;;;;;;;;;;;;;;19.54;63.18;99599.31;2073175;28;19965;-73
2022/12/27 07:01:16;;;;;;;;;;;;;;;19.52;62.93;99607.56;2072758;28;19933;-74
2022/12/27 07:02:18;;;;;;;;;;;;;;;19.51;63.32;99605.91;2073711;28;19963;-72
2022/12/27 07:03:19;;;;;;;;;;;;;;;19.53;63.18;99608.38;2070296;28;19932;-73
2022/12/27 07:04:20;;;;;;;;;;;;;;;19.53;62.89;99597.63;2073738;28;19963;-72
2022/12/27 07:05:21;;;;;;;;;;;;;;;19.52;63.31;99596.81;2073969;28;19925;-74
2022/12/27 07:06:22;;;;;;;;;;;;;;;19.51;62.97;99600.53;2072133;28;19925;-73
2022/12/27 07:07:23;;;;;;;;;;;;;;;19.50;63.17;99598.00;2073233;28;19925;-72